createdAt,value
2019-01-21T00:01:18.253Z,38.60
2019-01-21T00:03:47.172Z,37.57
2019-01-21T00:06:16.180Z,38.13
2019-01-21T00:08:45.222Z,38.80
2019-01-21T00:11:14.171Z,39.60
2019-01-21T00:13:43.061Z,38.90
2019-01-21T00:16:12.045Z,40.63
2019-01-21T00:18:41.046Z,39.67
2019-01-21T00:21:10.093Z,39.27
2019-01-21T00:23:38.979Z,39.47
2019-01-21T00:26:07.979Z,47.60
2019-01-21T00:28:36.971Z,39.77
2019-01-21T00:31:05.913Z,41.17
2019-01-21T00:33:34.814Z,41.63
2019-01-21T00:36:03.840Z,43.73
2019-01-21T00:38:32.834Z,42.77
2019-01-21T00:41:01.742Z,43.03
2019-01-21T00:43:30.738Z,41.97
2019-01-21T00:45:59.661Z,41.43
2019-01-21T00:48:28.727Z,41.30
2019-01-21T00:50:57.748Z,38.17
2019-01-21T00:53:26.643Z,38.33
2019-01-21T00:55:55.588Z,38.83
2019-01-21T00:58:24.584Z,38.50
2019-01-21T01:00:53.610Z,39.70
2019-01-21T01:03:22.511Z,39.27
2019-01-21T01:05:51.478Z,40.50
2019-01-21T01:08:20.487Z,40.50
2019-01-21T01:10:49.478Z,41.80
2019-01-21T01:13:18.459Z,41.97
2019-01-21T01:15:47.446Z,39.10
2019-01-21T01:18:16.640Z,38.80
2019-01-21T01:20:45.629Z,38.27
2019-01-21T01:23:14.721Z,40.97
2019-01-21T01:25:43.696Z,37.57
2019-01-21T01:28:12.660Z,37.27
2019-01-21T01:30:41.680Z,40.37
2019-01-21T01:33:11.135Z,39.00
2019-01-21T01:35:40.076Z,38.97
2019-01-21T01:38:09.318Z,41.10
2019-01-21T01:40:38.189Z,38.90
2019-01-21T01:43:07.211Z,37.93
2019-01-21T01:45:36.532Z,36.73
2019-01-21T01:48:06.148Z,37.40
2019-01-21T01:50:35.098Z,35.53
2019-01-21T01:53:04.280Z,37.90
2019-01-21T01:55:33.811Z,37.13
2019-01-21T01:58:43.102Z,33.33
2019-01-21T02:01:31.232Z,37.13
2019-01-21T02:04:00.124Z,34.73
2019-01-21T02:09:24.362Z,36.47
2019-01-21T02:15:07.277Z,36.23
2019-01-21T02:17:55.697Z,37.17
2019-01-21T02:20:24.533Z,38.67
2019-01-21T02:23:14.864Z,40.27
2019-01-21T02:26:02.834Z,46.77
2019-01-21T02:28:53.623Z,42.70
2019-01-21T02:32:00.838Z,39.23
2019-01-21T02:34:51.599Z,39.83
2019-01-21T02:37:58.861Z,38.47
2019-01-21T02:40:49.208Z,36.90
2019-01-21T02:43:58.660Z,36.60
2019-01-21T02:46:43.408Z,36.77
2019-01-21T02:50:04.508Z,39.37
2019-01-21T02:53:11.778Z,35.70
2019-01-21T02:56:23.159Z,35.47
2019-01-21T02:59:25.870Z,38.93
2019-01-21T03:02:20.814Z,34.93
2019-01-21T03:05:26.653Z,35.03
2019-01-21T03:08:51.702Z,36.10
2019-01-21T03:11:43.507Z,35.60
2019-01-21T03:14:40.247Z,35.80
2019-01-21T03:17:45.581Z,37.03
2019-01-21T03:20:32.311Z,35.70
2019-01-21T03:23:41.743Z,35.80
2019-01-21T03:26:26.302Z,35.77
2019-01-21T03:29:45.543Z,38.17
2019-01-21T03:32:54.662Z,37.60
2019-01-21T03:36:01.624Z,36.67
2019-01-21T03:39:10.949Z,36.03
2019-01-21T03:42:22.903Z,36.47
2019-01-21T03:45:27.486Z,34.83
2019-01-21T03:48:17.305Z,36.73
2019-01-21T03:51:31.054Z,36.50
2019-01-21T03:54:10.519Z,38.17
2019-01-21T03:57:09.846Z,35.43
2019-01-21T04:00:15.810Z,35.73
2019-01-21T04:03:20.931Z,37.13
2019-01-21T04:06:33.387Z,34.70
2019-01-21T04:09:32.825Z,34.57
2019-01-21T04:12:28.800Z,33.43
2019-01-21T04:15:23.741Z,36.40
2019-01-21T04:18:32.985Z,31.53
2019-01-21T04:21:33.557Z,34.63
2019-01-21T04:24:52.049Z,34.30
2019-01-21T04:27:44.238Z,34.80
2019-01-21T04:30:42.597Z,34.40
2019-01-21T04:33:57.851Z,34.37
2019-01-21T04:37:09.374Z,35.33
2019-01-21T04:40:25.409Z,32.77
2019-01-21T04:43:44.696Z,36.47
2019-01-21T04:46:54.883Z,32.07
2019-01-21T04:49:54.664Z,34.40
2019-01-21T04:52:39.001Z,33.53
2019-01-21T04:55:44.151Z,35.27
2019-01-21T04:59:09.754Z,33.17
2019-01-21T05:02:01.286Z,28.77
2019-01-21T05:05:09.831Z,32.53
2019-01-21T05:08:19.519Z,31.03
2019-01-21T05:11:21.015Z,31.57
2019-01-21T05:14:03.259Z,32.57
2019-01-21T05:16:55.167Z,32.07
2019-01-21T05:19:53.981Z,32.13
2019-01-21T05:22:39.741Z,27.03
2019-01-21T05:25:26.181Z,32.53
2019-01-21T05:28:27.671Z,31.00
2019-01-21T05:31:25.628Z,31.30
2019-01-21T05:34:24.797Z,31.50
2019-01-21T05:37:14.577Z,29.20
2019-01-21T05:40:15.914Z,30.07
2019-01-21T05:43:29.117Z,29.77
2019-01-21T05:46:35.587Z,30.03
2019-01-21T05:49:41.128Z,29.97
2019-01-21T05:52:41.004Z,30.93
2019-01-21T05:55:38.908Z,29.63
2019-01-21T05:58:43.976Z,31.53
2019-01-21T06:01:48.955Z,29.90
2019-01-21T06:04:40.674Z,31.17
2019-01-21T06:07:43.944Z,31.20
2019-01-21T06:10:44.271Z,29.73
2019-01-21T06:14:00.028Z,30.07
2019-01-21T06:16:53.752Z,28.43
2019-01-21T06:20:02.643Z,30.23
2019-01-21T06:22:45.290Z,30.07
2019-01-21T06:25:39.043Z,30.70
2019-01-21T06:28:55.157Z,30.23
2019-01-21T06:32:00.955Z,30.37
2019-01-21T06:35:13.672Z,31.70
2019-01-21T06:38:14.164Z,30.83
2019-01-21T06:41:36.188Z,30.23
2019-01-21T06:44:55.236Z,31.60
2019-01-21T06:48:05.576Z,30.07
2019-01-21T06:51:04.305Z,31.03
2019-01-21T06:54:14.195Z,30.77
2019-01-21T06:57:39.225Z,30.40
2019-01-21T07:00:47.578Z,30.47
2019-01-21T07:04:12.561Z,30.40
2019-01-21T07:07:07.751Z,31.07
2019-01-21T07:09:52.642Z,30.90
2019-01-21T07:12:35.780Z,32.97
2019-01-21T07:15:44.463Z,31.73
2019-01-21T07:18:49.410Z,31.97
2019-01-21T07:21:59.973Z,32.00
2019-01-21T07:25:11.215Z,32.03
2019-01-21T07:28:27.164Z,31.50
2019-01-21T07:31:13.593Z,30.67
2019-01-21T07:34:04.124Z,31.27
2019-01-21T07:36:47.758Z,32.87
2019-01-21T07:39:49.045Z,32.53
2019-01-21T07:42:38.713Z,32.87
2019-01-21T07:45:16.088Z,31.00
2019-01-21T07:48:19.357Z,34.73
2019-01-21T07:51:31.525Z,32.67
2019-01-21T07:54:31.352Z,32.57
2019-01-21T07:57:27.203Z,32.83
2019-01-21T08:00:21.924Z,34.40
2019-01-21T08:03:40.426Z,34.00
2019-01-21T08:06:25.065Z,33.43
2019-01-21T08:09:43.392Z,33.87
2019-01-21T08:12:54.673Z,33.70
2019-01-21T08:15:56.148Z,30.33
2019-01-21T08:22:48.260Z,31.07
2019-01-21T08:26:16.323Z,30.97
2019-01-21T08:29:10.864Z,31.77
2019-01-21T08:32:21.433Z,31.03
2019-01-21T08:35:25.327Z,30.30
2019-01-21T08:38:24.982Z,31.03
2019-01-21T08:41:39.013Z,31.80
2019-01-21T08:44:46.260Z,31.40
2019-01-21T08:47:58.520Z,32.00
2019-01-21T08:51:19.795Z,29.93
2019-01-21T08:54:26.998Z,31.53
2019-01-21T08:57:34.263Z,27.90
2019-01-21T09:00:41.579Z,29.23
2019-01-21T09:06:47.920Z,28.90
2019-01-21T09:10:09.555Z,28.60
2019-01-21T09:13:16.818Z,29.27
2019-01-21T09:16:09.608Z,29.53
2019-01-21T09:19:00.631Z,29.13
2019-01-21T09:22:10.886Z,29.67
2019-01-21T09:25:18.403Z,29.57
2019-01-21T09:31:21.706Z,28.97
2019-01-21T09:34:28.938Z,29.97
2019-01-21T09:37:45.880Z,29.47
2019-01-21T09:40:53.116Z,30.50
2019-01-21T09:44:00.326Z,28.90
2019-01-21T09:46:48.463Z,29.60
2019-01-21T09:49:35.810Z,29.23
2019-01-21T09:52:23.843Z,30.73
2019-01-21T10:01:58.167Z,29.30
2019-01-21T10:04:50.466Z,27.93
2019-01-21T10:07:57.720Z,29.30
2019-01-21T10:14:06.079Z,27.83
2019-01-21T10:17:13.312Z,26.23
2019-01-21T10:19:52.667Z,27.73
2019-01-21T10:22:59.897Z,27.03
2019-01-21T10:26:07.163Z,27.00
2019-01-21T10:29:18.289Z,28.07
2019-01-21T10:35:20.172Z,27.40
2019-01-21T10:38:39.258Z,26.53
2019-01-21T10:41:50.579Z,25.97
2019-01-21T10:44:57.767Z,27.60
2019-01-21T10:47:32.567Z,26.73
2019-01-21T10:50:39.770Z,26.13
2019-01-21T10:53:47.025Z,26.47
2019-01-21T10:57:01.503Z,27.60
2019-01-21T10:59:53.385Z,27.50
2019-01-21T11:03:00.613Z,29.33
2019-01-21T11:05:54.647Z,28.20
2019-01-21T11:09:02.048Z,27.93
2019-01-21T11:12:09.347Z,27.20
2019-01-21T11:15:00.792Z,26.67
2019-01-21T11:24:45.315Z,28.73
2019-01-21T11:27:52.513Z,27.67
2019-01-21T11:30:59.782Z,26.23
2019-01-21T11:34:07.103Z,25.37
2019-01-21T11:37:14.379Z,24.83
2019-01-21T11:43:31.525Z,24.50
2019-01-21T11:46:38.815Z,23.23
2019-01-21T11:49:46.104Z,22.73
2019-01-21T11:52:46.325Z,23.00
2019-01-21T11:55:53.576Z,23.93
2019-01-21T11:59:00.777Z,24.83
2019-01-21T12:02:07.998Z,24.30
2019-01-21T12:08:29.805Z,23.30
2019-01-21T12:11:21.183Z,23.07
2019-01-21T12:17:29.928Z,22.57
2019-01-21T12:20:21.975Z,23.37
2019-01-21T12:23:29.181Z,23.00
2019-01-21T12:26:39.917Z,22.33
2019-01-21T12:29:47.118Z,21.80
2019-01-21T12:32:54.410Z,22.23
2019-01-21T12:36:01.647Z,21.47
2019-01-21T12:39:08.886Z,23.83
2019-01-21T12:42:16.101Z,23.37
2019-01-21T12:45:16.989Z,22.87
2019-01-21T12:48:08.285Z,23.03
2019-01-21T12:51:15.545Z,22.37
2019-01-21T12:54:22.810Z,22.80
2019-01-21T12:57:30.071Z,23.10
2019-01-21T13:00:22.847Z,24.57
2019-01-21T13:03:30.103Z,21.03
2019-01-21T13:06:32.435Z,21.53
2019-01-21T13:09:47.747Z,22.60
2019-01-21T13:12:54.963Z,20.77
2019-01-21T13:16:02.208Z,23.30
2019-01-21T13:19:09.432Z,23.00
2019-01-21T13:22:24.885Z,22.03
2019-01-21T13:25:19.273Z,21.57
2019-01-21T13:28:12.289Z,22.60
2019-01-21T13:31:24.950Z,23.23
2019-01-21T13:34:32.202Z,22.93
2019-01-21T13:37:39.432Z,22.90
2019-01-21T13:40:41.222Z,22.37
2019-01-21T13:43:36.763Z,23.23
2019-01-21T13:46:44.010Z,25.57
2019-01-21T13:50:04.832Z,23.53
2019-01-21T13:53:12.226Z,23.80
2019-01-21T13:56:07.603Z,25.50
2019-01-21T13:59:14.890Z,22.20
2019-01-21T14:02:05.445Z,23.70
2019-01-21T14:05:12.792Z,24.83
2019-01-21T14:08:19.990Z,23.87
2019-01-21T14:11:27.252Z,23.30
2019-01-21T14:14:22.371Z,23.57
2019-01-21T14:17:34.496Z,23.90
2019-01-21T14:20:48.417Z,22.70
2019-01-21T14:23:55.675Z,22.53
2019-01-21T14:27:09.874Z,23.43
2019-01-21T14:30:20.563Z,23.30
2019-01-21T14:33:27.788Z,22.60
2019-01-21T14:36:35.012Z,23.47
2019-01-21T14:39:42.298Z,23.97
2019-01-21T14:42:49.529Z,22.67
2019-01-21T14:45:56.778Z,23.17
2019-01-21T14:49:04.863Z,23.20
2019-01-21T14:52:12.987Z,23.40
2019-01-21T14:55:20.259Z,23.50
2019-01-21T14:58:27.467Z,24.07
2019-01-21T15:01:34.710Z,25.03
2019-01-21T15:04:41.980Z,24.07
2019-01-21T15:07:49.261Z,24.10
2019-01-21T15:10:56.497Z,24.87
2019-01-21T15:14:03.735Z,24.23
2019-01-21T15:17:11.035Z,24.27
2019-01-21T15:20:10.911Z,25.23
2019-01-21T15:23:02.237Z,25.40
2019-01-21T15:26:09.467Z,26.47
2019-01-21T15:29:16.685Z,24.77
2019-01-21T15:32:23.937Z,23.93
2019-01-21T15:35:31.156Z,23.30
2019-01-21T15:38:38.384Z,24.60
2019-01-21T15:41:45.691Z,25.03
2019-01-21T15:44:36.119Z,24.20
2019-01-21T15:47:43.351Z,24.00
2019-01-21T15:50:50.583Z,24.30
2019-01-21T15:53:57.815Z,24.17
2019-01-21T16:00:39.316Z,23.53
2019-01-21T16:03:46.598Z,23.00
2019-01-21T16:06:53.838Z,23.27
2019-01-21T16:10:01.043Z,24.67
2019-01-21T16:13:13.540Z,22.63
2019-01-21T16:16:20.765Z,22.53
2019-01-21T16:19:28.095Z,22.27
2019-01-21T16:22:35.301Z,22.50
2019-01-21T16:25:42.593Z,23.87
2019-01-21T16:28:52.612Z,23.17
2019-01-21T16:31:51.987Z,23.77
2019-01-21T16:34:44.548Z,23.03
2019-01-21T16:37:45.080Z,23.70
2019-01-21T16:40:36.774Z,23.60
2019-01-21T16:43:05.807Z,23.27
2019-01-21T16:45:34.777Z,23.10
2019-01-21T16:48:03.816Z,23.40
2019-01-21T16:50:32.820Z,23.93
2019-01-21T16:53:01.809Z,23.50
2019-01-21T16:55:30.785Z,24.97
2019-01-21T16:57:59.904Z,23.57
2019-01-21T17:00:28.849Z,23.10
2019-01-21T17:02:57.863Z,22.83
2019-01-21T17:05:26.976Z,24.77
2019-01-21T17:07:57.177Z,23.83
2019-01-21T17:10:26.219Z,23.67
2019-01-21T17:12:55.315Z,23.20
2019-01-21T17:15:24.404Z,24.67
2019-01-21T17:17:53.539Z,24.67
2019-01-21T17:20:22.790Z,25.97
2019-01-21T17:22:51.728Z,24.07
2019-01-21T17:25:20.802Z,24.33
2019-01-21T17:27:50.004Z,25.07
2019-01-21T17:30:19.278Z,24.37
2019-01-21T17:32:48.269Z,24.20
2019-01-21T17:35:17.348Z,22.40
2019-01-21T17:37:46.276Z,24.37
2019-01-21T17:40:16.908Z,25.07
2019-01-21T17:42:45.910Z,23.37
2019-01-21T17:45:17.236Z,23.63
2019-01-21T17:47:46.199Z,23.67
2019-01-21T17:51:00.405Z,25.20
2019-01-21T17:53:29.296Z,26.27
2019-01-21T17:55:58.206Z,26.03
2019-01-21T17:59:03.744Z,25.03
2019-01-21T18:01:35.749Z,25.03
2019-01-21T18:04:03.663Z,23.43
2019-01-21T18:06:32.971Z,27.27
2019-01-21T18:09:02.233Z,26.30
2019-01-21T18:11:31.179Z,26.67
2019-01-21T18:14:00.263Z,25.43
2019-01-21T18:16:29.243Z,25.77
2019-01-21T18:18:58.258Z,25.07
2019-01-21T18:21:27.441Z,31.60
2019-01-21T18:23:56.516Z,25.57
2019-01-21T18:26:25.658Z,28.63
2019-01-21T18:28:54.769Z,25.83
2019-01-21T18:31:24.105Z,24.63
2019-01-21T18:33:53.137Z,25.90
2019-01-21T18:36:22.182Z,28.23
2019-01-21T18:38:51.325Z,26.07
2019-01-21T18:41:20.365Z,26.03
2019-01-21T18:43:49.497Z,26.63
2019-01-21T18:46:18.785Z,25.43
2019-01-21T18:48:47.765Z,25.93
2019-01-21T18:51:16.783Z,25.50
2019-01-21T18:53:45.782Z,27.13
2019-01-21T18:56:14.764Z,27.00
2019-01-21T18:58:43.750Z,24.90
2019-01-21T19:01:12.798Z,26.37
2019-01-21T19:03:41.841Z,26.37
2019-01-21T19:06:10.847Z,26.00
2019-01-21T19:08:39.808Z,26.10
2019-01-21T19:11:08.862Z,26.50
2019-01-21T19:13:37.796Z,27.43
2019-01-21T19:16:06.817Z,29.37
2019-01-21T19:18:35.712Z,27.07
2019-01-21T19:21:04.731Z,27.13
2019-01-21T19:23:33.720Z,27.20
2019-01-21T19:26:03.010Z,29.10
2019-01-21T19:28:33.257Z,28.73
2019-01-21T19:31:02.187Z,27.50
2019-01-21T19:33:32.229Z,27.77
2019-01-21T19:36:01.239Z,27.57
2019-01-21T19:38:30.207Z,29.20
2019-01-21T19:40:59.267Z,28.13
2019-01-21T19:43:28.205Z,27.53
2019-01-21T19:45:57.257Z,29.40
2019-01-21T19:48:26.275Z,28.47
2019-01-21T19:50:56.157Z,28.63
2019-01-21T19:53:25.299Z,28.97
2019-01-21T19:55:54.609Z,28.10
2019-01-21T19:58:23.832Z,28.03
2019-01-21T20:00:53.064Z,28.47
2019-01-21T20:03:22.429Z,26.60
2019-01-21T20:05:51.654Z,28.20
2019-01-21T20:08:20.869Z,26.43
2019-01-21T20:10:49.948Z,28.33
2019-01-21T20:13:18.948Z,27.10
2019-01-21T20:15:47.975Z,29.23
2019-01-21T20:18:17.268Z,27.73
2019-01-21T20:20:46.433Z,26.73
2019-01-21T20:23:15.487Z,26.13
2019-01-21T20:25:44.616Z,25.77
2019-01-21T20:28:13.849Z,24.90
2019-01-21T20:30:42.883Z,27.90
2019-01-21T20:33:11.991Z,27.97
2019-01-21T20:35:41.351Z,26.93
2019-01-21T20:38:10.377Z,27.37
2019-01-21T20:40:39.523Z,26.77
2019-01-21T20:43:08.564Z,27.67
2019-01-21T20:45:37.732Z,25.60
2019-01-21T20:48:06.889Z,26.00
2019-01-21T20:50:36.654Z,26.27
2019-01-21T20:53:05.973Z,25.50
2019-01-21T20:55:35.115Z,26.03
2019-01-21T20:58:04.448Z,24.27
2019-01-21T21:00:33.605Z,25.13
2019-01-21T21:03:02.803Z,25.37
2019-01-21T21:05:32.182Z,28.00
2019-01-21T21:08:01.803Z,26.10
2019-01-21T21:10:31.373Z,26.90
2019-01-21T21:13:01.109Z,25.50
2019-01-21T21:15:32.520Z,27.67
2019-01-21T21:18:02.090Z,26.33
2019-01-21T21:20:31.460Z,26.10
2019-01-21T21:23:00.899Z,27.47
2019-01-21T21:25:30.210Z,28.60
2019-01-21T21:27:59.683Z,28.27
2019-01-21T21:30:31.591Z,30.23
2019-01-21T21:33:00.864Z,29.07
2019-01-21T21:35:32.793Z,29.53
2019-01-21T21:38:02.119Z,30.60
2019-01-21T21:40:31.648Z,30.17
2019-01-21T21:43:01.235Z,31.93
2019-01-21T21:45:30.582Z,31.53
2019-01-21T21:48:01.251Z,31.17
2019-01-21T21:50:32.677Z,31.50
2019-01-21T21:53:01.895Z,30.93
2019-01-21T21:55:31.263Z,31.20
2019-01-21T21:58:00.538Z,32.47
2019-01-21T22:00:30.253Z,29.97
2019-01-21T22:02:59.645Z,30.77
2019-01-21T22:05:28.825Z,30.50
2019-01-21T22:07:58.056Z,32.27
2019-01-21T22:10:28.985Z,32.30
2019-01-21T22:12:58.406Z,32.90
2019-01-21T22:15:28.061Z,33.70
2019-01-21T22:17:57.291Z,33.30
2019-01-21T22:20:26.859Z,34.97
2019-01-21T22:22:56.096Z,33.73
2019-01-21T22:25:25.184Z,32.17
2019-01-21T22:27:54.094Z,35.03
2019-01-21T22:30:27.662Z,34.50
2019-01-21T22:32:56.883Z,33.03
2019-01-21T22:38:34.447Z,34.43
2019-01-21T22:41:22.381Z,36.80
2019-01-21T22:44:10.528Z,36.33
2019-01-21T22:46:58.645Z,36.13
2019-01-21T22:49:46.814Z,35.33
2019-01-21T22:55:22.826Z,34.17
2019-01-21T22:58:10.941Z,34.97
2019-01-21T23:01:23.621Z,34.57
2019-01-21T23:04:13.493Z,37.97
2019-01-21T23:06:42.480Z,36.90
2019-01-21T23:09:11.476Z,38.20
2019-01-21T23:11:40.378Z,38.87
2019-01-21T23:14:09.422Z,38.53
2019-01-21T23:16:38.402Z,35.67
2019-01-21T23:19:07.335Z,36.50
2019-01-21T23:21:36.376Z,35.53
2019-01-21T23:24:05.721Z,37.27
2019-01-21T23:26:34.946Z,37.83
2019-01-21T23:29:04.130Z,39.83
2019-01-21T23:31:33.069Z,39.17
2019-01-21T23:34:01.958Z,38.93
2019-01-21T23:36:30.816Z,39.50
2019-01-21T23:39:00.634Z,40.33
2019-01-21T23:41:29.572Z,39.23
2019-01-21T23:43:58.573Z,40.20
2019-01-21T23:46:27.515Z,39.13
2019-01-21T23:48:56.426Z,37.90
2019-01-21T23:51:25.447Z,39.20
2019-01-21T23:53:54.283Z,38.17
2019-01-21T23:56:23.289Z,37.70
2019-01-21T23:58:52.237Z,37.33
